createdAt,value
2017-10-23T00:00:39.794Z,0
2017-10-23T00:01:39.778Z,0
2017-10-23T00:02:40.109Z,0
2017-10-23T00:03:39.754Z,0
2017-10-23T00:04:39.745Z,0
2017-10-23T00:05:40.093Z,0
2017-10-23T00:06:39.714Z,0
2017-10-23T00:07:39.712Z,0
2017-10-23T00:08:39.696Z,0
2017-10-23T00:09:39.681Z,0
2017-10-23T00:10:39.668Z,0
2017-10-23T00:11:40.016Z,0
2017-10-23T00:12:39.637Z,0
2017-10-23T00:13:39.628Z,0
2017-10-23T00:14:39.615Z,0
2017-10-23T00:15:39.606Z,0
2017-10-23T00:16:39.589Z,0
2017-10-23T00:17:39.575Z,0
2017-10-23T00:18:39.564Z,0
2017-10-23T00:19:39.551Z,0
2017-10-23T00:20:39.880Z,0
2017-10-23T00:21:39.527Z,0
2017-10-23T00:22:39.517Z,0
2017-10-23T00:23:39.861Z,0
2017-10-23T00:24:39.845Z,0
2017-10-23T00:25:39.499Z,0
2017-10-23T00:26:39.463Z,0
2017-10-23T00:27:39.450Z,0
2017-10-23T00:28:39.438Z,0
2017-10-23T00:29:39.768Z,0
2017-10-23T00:30:39.430Z,0
2017-10-23T00:31:39.401Z,0
2017-10-23T00:32:39.750Z,0
2017-10-23T00:33:39.376Z,0
2017-10-23T00:34:39.723Z,0
2017-10-23T00:35:39.350Z,0
2017-10-23T00:36:39.340Z,0
2017-10-23T00:37:39.333Z,0
2017-10-23T00:38:39.314Z,0
2017-10-23T00:39:39.302Z,0
2017-10-23T00:40:39.308Z,0
2017-10-23T00:41:39.620Z,0
2017-10-23T00:42:39.264Z,0
2017-10-23T00:43:39.253Z,0
2017-10-23T00:44:39.240Z,0
2017-10-23T00:45:39.227Z,0
2017-10-23T00:46:39.215Z,0
2017-10-23T00:47:39.224Z,0
2017-10-23T00:48:39.537Z,0
2017-10-23T00:49:39.177Z,0
2017-10-23T00:50:39.505Z,0
2017-10-23T00:51:39.154Z,0
2017-10-23T00:52:39.479Z,0
2017-10-23T00:53:39.128Z,0
2017-10-23T00:54:39.115Z,0
2017-10-23T00:55:39.102Z,0
2017-10-23T00:56:39.430Z,0
2017-10-23T00:57:39.091Z,0
2017-10-23T00:58:39.066Z,0
2017-10-23T00:59:39.069Z,0
2017-10-23T01:00:39.040Z,0
2017-10-23T01:01:39.041Z,0
2017-10-23T01:02:39.356Z,0
2017-10-23T01:03:39.009Z,0
2017-10-23T01:04:38.991Z,0
2017-10-23T01:05:38.978Z,0
2017-10-23T01:06:38.965Z,0
2017-10-23T01:07:39.294Z,0
2017-10-23T01:08:38.940Z,0
2017-10-23T01:09:39.271Z,0
2017-10-23T01:10:38.924Z,0
2017-10-23T01:11:39.244Z,0
2017-10-23T01:12:38.893Z,0
2017-10-23T01:13:38.882Z,0
2017-10-23T01:14:38.886Z,0
2017-10-23T01:15:38.854Z,0
2017-10-23T01:16:39.191Z,0
2017-10-23T01:17:38.829Z,0
2017-10-23T01:18:38.817Z,0
2017-10-23T01:19:38.806Z,0
2017-10-23T01:20:38.797Z,0
2017-10-23T01:21:38.782Z,0
2017-10-23T01:22:39.127Z,0
2017-10-23T01:23:38.762Z,0
2017-10-23T01:24:39.084Z,0
2017-10-23T01:25:38.735Z,0
2017-10-23T01:26:38.720Z,0
2017-10-23T01:27:38.709Z,0
2017-10-23T01:28:39.041Z,0
2017-10-23T01:29:39.026Z,0
2017-10-23T01:30:39.012Z,0
2017-10-23T01:31:38.661Z,0
2017-10-23T01:32:38.646Z,0
2017-10-23T01:33:38.977Z,0
2017-10-23T01:34:38.620Z,0
2017-10-23T01:35:38.610Z,0
2017-10-23T01:36:38.937Z,0
2017-10-23T01:37:38.585Z,0
2017-10-23T01:38:38.574Z,0
2017-10-23T01:39:38.900Z,0
2017-10-23T01:40:38.546Z,0
2017-10-23T01:41:38.536Z,0
2017-10-23T01:42:38.863Z,0
2017-10-23T01:43:38.511Z,0
2017-10-23T01:44:38.499Z,0
2017-10-23T01:45:38.487Z,0
2017-10-23T01:46:38.510Z,0
2017-10-23T01:47:38.461Z,0
2017-10-23T01:48:38.791Z,0
2017-10-23T01:49:38.442Z,0
2017-10-23T01:50:38.766Z,0
2017-10-23T01:51:38.414Z,0
2017-10-23T01:52:38.403Z,0
2017-10-23T01:53:38.390Z,0
2017-10-23T01:54:38.376Z,0
2017-10-23T01:55:38.362Z,0
2017-10-23T01:56:38.351Z,0
2017-10-23T01:57:38.699Z,0
2017-10-23T01:58:38.330Z,0
2017-10-23T01:59:38.326Z,0
2017-10-23T02:00:38.304Z,0
2017-10-23T02:01:38.290Z,0
2017-10-23T02:02:38.326Z,0
2017-10-23T02:03:38.267Z,0
2017-10-23T02:04:38.597Z,0
2017-10-23T02:05:38.605Z,0
2017-10-23T02:06:38.230Z,0
2017-10-23T02:07:38.239Z,0
2017-10-23T02:08:38.547Z,0
2017-10-23T02:09:38.193Z,0
2017-10-23T02:10:38.199Z,0
2017-10-23T02:11:38.168Z,0
2017-10-23T02:12:38.157Z,0
2017-10-23T02:13:38.490Z,0
2017-10-23T02:14:38.494Z,0
2017-10-23T02:15:38.123Z,0
2017-10-23T02:16:38.109Z,0
2017-10-23T02:17:38.450Z,0
2017-10-23T02:18:38.086Z,0
2017-10-23T02:19:38.072Z,0
2017-10-23T02:20:38.071Z,0
2017-10-23T02:21:38.049Z,0
2017-10-23T02:22:38.376Z,0
2017-10-23T02:23:38.025Z,0
2017-10-23T02:24:38.028Z,0
2017-10-23T02:25:38.001Z,0
2017-10-23T02:26:37.991Z,0
2017-10-23T02:27:37.977Z,0
2017-10-23T02:28:37.963Z,0
2017-10-23T02:29:37.954Z,0
2017-10-23T02:30:37.942Z,0
2017-10-23T02:31:37.928Z,0
2017-10-23T02:32:37.925Z,0
2017-10-23T02:33:37.906Z,0
2017-10-23T02:34:38.234Z,0
2017-10-23T02:35:38.233Z,0
2017-10-23T02:36:37.868Z,0
2017-10-23T02:37:38.215Z,0
2017-10-23T02:38:37.843Z,0
2017-10-23T02:39:37.832Z,0
2017-10-23T02:40:37.832Z,0
2017-10-23T02:41:38.150Z,0
2017-10-23T02:42:37.796Z,0
2017-10-23T02:43:38.134Z,0
2017-10-23T02:44:37.774Z,0
2017-10-23T02:45:37.758Z,0
2017-10-23T02:46:38.101Z,0
2017-10-23T02:47:38.091Z,0
2017-10-23T02:48:37.747Z,0
2017-10-23T02:49:37.711Z,0
2017-10-23T02:50:37.729Z,0
2017-10-23T02:51:37.689Z,0
2017-10-23T02:52:38.032Z,0
2017-10-23T02:53:38.007Z,0
2017-10-23T02:54:37.991Z,0
2017-10-23T02:55:37.637Z,0
2017-10-23T02:56:37.626Z,0
2017-10-23T02:57:37.615Z,0
2017-10-23T02:58:37.601Z,0
2017-10-23T02:59:37.590Z,0
2017-10-23T03:00:37.918Z,0
2017-10-23T03:01:37.912Z,0
2017-10-23T03:02:37.575Z,0
2017-10-23T03:03:37.542Z,0
2017-10-23T03:04:37.540Z,0
2017-10-23T03:05:37.515Z,0
2017-10-23T03:06:37.857Z,0
2017-10-23T03:07:37.835Z,0
2017-10-23T03:08:37.823Z,0
2017-10-23T03:09:37.467Z,0
2017-10-23T03:10:37.796Z,0
2017-10-23T03:11:37.442Z,0
2017-10-23T03:12:37.430Z,0
2017-10-23T03:13:37.418Z,0
2017-10-23T03:14:37.406Z,0
2017-10-23T03:15:37.393Z,0
2017-10-23T03:16:37.749Z,0
2017-10-23T03:17:37.370Z,0
2017-10-23T03:18:37.697Z,0
2017-10-23T03:19:37.343Z,0
2017-10-23T03:20:37.351Z,0
2017-10-23T03:21:37.329Z,0
2017-10-23T03:22:37.328Z,0
2017-10-23T03:23:37.641Z,0
2017-10-23T03:24:37.282Z,0
2017-10-23T03:25:37.271Z,0
2017-10-23T03:26:37.257Z,0
2017-10-23T03:27:37.595Z,0
2017-10-23T03:28:37.233Z,0
2017-10-23T03:29:37.221Z,0
2017-10-23T03:30:37.209Z,0
2017-10-23T03:31:37.195Z,0
2017-10-23T03:32:37.525Z,0
2017-10-23T03:33:37.171Z,0
2017-10-23T03:34:37.172Z,0
2017-10-23T03:35:37.145Z,0
2017-10-23T03:36:37.141Z,0
2017-10-23T03:37:37.120Z,0
2017-10-23T03:38:37.107Z,0
2017-10-23T03:39:37.441Z,0
2017-10-23T03:40:37.095Z,0
2017-10-23T03:41:37.070Z,0
2017-10-23T03:42:37.406Z,0
2017-10-23T03:43:37.047Z,0
2017-10-23T03:44:37.037Z,0
2017-10-23T03:45:37.362Z,0
2017-10-23T03:46:37.009Z,0
2017-10-23T03:47:36.996Z,0
2017-10-23T03:48:36.983Z,0
2017-10-23T03:49:36.972Z,0
2017-10-23T03:50:36.958Z,0
2017-10-23T03:51:37.286Z,0
2017-10-23T03:52:36.935Z,0
2017-10-23T03:53:36.920Z,0
2017-10-23T03:54:37.254Z,0
2017-10-23T03:55:37.236Z,0
2017-10-23T03:56:36.881Z,0
2017-10-23T03:57:36.876Z,0
2017-10-23T03:58:36.858Z,0
2017-10-23T03:59:37.185Z,0
2017-10-23T04:00:36.832Z,0
2017-10-23T04:01:36.820Z,0
2017-10-23T04:02:36.807Z,0
2017-10-23T04:03:37.135Z,0
2017-10-23T04:04:36.785Z,0
2017-10-23T04:05:36.778Z,0
2017-10-23T04:06:36.761Z,0
2017-10-23T04:07:37.105Z,0
2017-10-23T04:08:37.073Z,0
2017-10-23T04:09:36.715Z,0
2017-10-23T04:10:37.062Z,0
2017-10-23T04:11:37.045Z,0
2017-10-23T04:12:36.680Z,0
2017-10-23T04:13:36.690Z,0
2017-10-23T04:14:36.654Z,0
2017-10-23T04:15:36.660Z,0
2017-10-23T04:16:36.646Z,0
2017-10-23T04:17:36.616Z,0
2017-10-23T04:18:36.944Z,0
2017-10-23T04:19:36.934Z,0
2017-10-23T04:20:36.580Z,0
2017-10-23T04:21:36.568Z,0
2017-10-23T04:22:36.906Z,0
2017-10-23T04:23:36.541Z,0
2017-10-23T04:24:36.527Z,0
2017-10-23T04:25:36.866Z,0
2017-10-23T04:26:36.528Z,0
2017-10-23T04:27:36.862Z,0
2017-10-23T04:28:36.479Z,0
2017-10-23T04:29:36.510Z,0
2017-10-23T04:30:36.453Z,0
2017-10-23T04:31:36.779Z,0
2017-10-23T04:32:36.452Z,0
2017-10-23T04:33:36.759Z,0
2017-10-23T04:34:36.410Z,0
2017-10-23T04:35:36.390Z,0
2017-10-23T04:36:36.719Z,0
2017-10-23T04:37:36.704Z,0
2017-10-23T04:38:36.353Z,0
2017-10-23T04:39:36.341Z,0
2017-10-23T04:40:36.326Z,0
2017-10-23T04:41:36.316Z,0
2017-10-23T04:42:36.643Z,0
2017-10-23T04:43:36.658Z,0
2017-10-23T04:44:36.277Z,0
2017-10-23T04:45:36.630Z,0
2017-10-23T04:46:36.251Z,0
2017-10-23T04:47:36.583Z,0
2017-10-23T04:48:36.568Z,0
2017-10-23T04:49:36.558Z,0
2017-10-23T04:50:36.201Z,0
2017-10-23T04:51:36.204Z,0
2017-10-23T04:52:36.516Z,0
2017-10-23T04:53:36.539Z,0
2017-10-23T04:54:36.152Z,0
2017-10-23T04:55:36.480Z,0
2017-10-23T04:56:36.127Z,0
2017-10-23T04:57:36.117Z,0
2017-10-23T04:58:36.443Z,0
2017-10-23T04:59:36.111Z,0
2017-10-23T05:00:36.076Z,0
2017-10-23T05:01:36.065Z,0
2017-10-23T05:02:36.392Z,0
2017-10-23T05:03:36.052Z,0
2017-10-23T05:04:36.063Z,0
2017-10-23T05:05:36.355Z,0
2017-10-23T05:06:36.343Z,0
2017-10-23T05:07:35.990Z,0
2017-10-23T05:08:36.320Z,0
2017-10-23T05:09:35.965Z,0
2017-10-23T05:10:36.310Z,0
2017-10-23T05:11:35.941Z,0
2017-10-23T05:12:35.925Z,0
2017-10-23T05:13:36.269Z,0
2017-10-23T05:14:35.901Z,0
2017-10-23T05:15:35.889Z,0
2017-10-23T05:16:36.216Z,0
2017-10-23T05:17:35.884Z,0
2017-10-23T05:18:36.202Z,0
2017-10-23T05:19:36.201Z,0
2017-10-23T05:20:35.826Z,0
2017-10-23T05:21:36.155Z,0
2017-10-23T05:22:35.804Z,0
2017-10-23T05:23:36.129Z,0
2017-10-23T05:24:35.796Z,0
2017-10-23T05:25:35.764Z,0
2017-10-23T05:26:35.751Z,0
2017-10-23T05:27:36.100Z,0
2017-10-23T05:28:35.726Z,0
2017-10-23T05:29:35.718Z,0
2017-10-23T05:30:35.701Z,0
2017-10-23T05:31:35.698Z,0
2017-10-23T05:32:35.677Z,0
2017-10-23T05:33:35.663Z,0
2017-10-23T05:34:35.993Z,0
2017-10-23T05:35:35.978Z,0
2017-10-23T05:36:35.627Z,0
2017-10-23T05:37:35.614Z,0
2017-10-23T05:38:35.941Z,0
2017-10-23T05:39:35.589Z,0
2017-10-23T05:40:35.577Z,0
2017-10-23T05:41:35.906Z,0
2017-10-23T05:42:35.552Z,0
2017-10-23T05:43:35.539Z,0
2017-10-23T05:44:35.869Z,0
2017-10-23T05:45:35.514Z,0
2017-10-23T05:46:35.848Z,0
2017-10-23T05:47:35.490Z,0
2017-10-23T05:48:35.475Z,0
2017-10-23T05:49:35.469Z,0
2017-10-23T05:50:35.795Z,0
2017-10-23T05:51:35.438Z,0
2017-10-23T05:52:35.764Z,0
2017-10-23T05:53:35.755Z,0
2017-10-23T05:54:35.398Z,0
2017-10-23T05:55:35.387Z,0
2017-10-23T05:56:35.717Z,0
2017-10-23T05:57:35.717Z,0
2017-10-23T05:58:35.349Z,0
2017-10-23T05:59:35.682Z,0
2017-10-23T06:00:35.327Z,0
2017-10-23T06:01:35.310Z,0
2017-10-23T06:02:35.643Z,0
2017-10-23T06:03:35.307Z,0
2017-10-23T06:04:35.275Z,0
2017-10-23T06:05:35.618Z,0
2017-10-23T06:06:35.594Z,0
2017-10-23T06:07:35.236Z,0
2017-10-23T06:08:35.228Z,0
2017-10-23T06:09:35.554Z,0
2017-10-23T06:10:35.197Z,0
2017-10-23T06:11:35.528Z,0
2017-10-23T06:12:35.514Z,0
2017-10-23T06:13:35.159Z,0
2017-10-23T06:14:35.148Z,0
2017-10-23T06:15:35.475Z,0
2017-10-23T06:16:35.122Z,0
2017-10-23T06:17:35.125Z,0
2017-10-23T06:18:35.440Z,0
2017-10-23T06:19:35.091Z,0
2017-10-23T06:20:35.073Z,0
2017-10-23T06:21:35.061Z,0
2017-10-23T06:22:35.047Z,0
2017-10-23T06:23:35.033Z,0
2017-10-23T06:24:35.364Z,0
2017-10-23T06:25:35.024Z,0
2017-10-23T06:26:35.005Z,0
2017-10-23T06:27:35.353Z,0
2017-10-23T06:28:34.970Z,0
2017-10-23T06:29:34.959Z,0
2017-10-23T06:30:35.302Z,0
2017-10-23T06:31:34.934Z,0
2017-10-23T06:32:34.920Z,0
2017-10-23T06:33:35.250Z,0
2017-10-23T06:34:34.897Z,0
2017-10-23T06:35:34.885Z,0
2017-10-23T06:36:35.243Z,0
2017-10-23T06:37:34.860Z,0
2017-10-23T06:38:35.204Z,0
2017-10-23T06:39:35.175Z,0
2017-10-23T06:40:34.819Z,0
2017-10-23T06:41:35.152Z,0
2017-10-23T06:42:34.797Z,0
2017-10-23T06:43:35.126Z,0
2017-10-23T06:44:34.771Z,0
2017-10-23T06:45:35.112Z,0
2017-10-23T06:46:34.764Z,0
2017-10-23T06:47:35.076Z,0
2017-10-23T06:48:34.727Z,0
2017-10-23T06:49:35.051Z,0
2017-10-23T06:50:34.695Z,0
2017-10-23T06:51:35.035Z,0
2017-10-23T06:52:34.693Z,0
2017-10-23T06:53:34.664Z,0
2017-10-23T06:54:34.647Z,0
2017-10-23T06:55:34.977Z,0
2017-10-23T06:56:34.625Z,0
2017-10-23T06:57:34.952Z,0
2017-10-23T06:58:34.597Z,0
2017-10-23T06:59:34.926Z,0
2017-10-23T07:00:34.590Z,0
2017-10-23T07:01:34.901Z,0
2017-10-23T07:02:34.548Z,0
2017-10-23T07:03:34.888Z,0
2017-10-23T07:04:34.537Z,0
2017-10-23T07:05:34.510Z,0
2017-10-23T07:06:34.499Z,0
2017-10-23T07:07:34.488Z,0
2017-10-23T07:08:34.814Z,0
2017-10-23T07:09:34.462Z,0
2017-10-23T07:10:34.450Z,0.57
2017-10-23T07:11:34.779Z,2.18
2017-10-23T07:12:34.425Z,2.66
2017-10-23T07:13:34.752Z,3.23
2017-10-23T07:14:34.415Z,3.89
2017-10-23T07:15:34.387Z,4.56
2017-10-23T07:16:34.732Z,4.27
2017-10-23T07:17:34.363Z,4.17
2017-10-23T07:18:34.352Z,4.08
2017-10-23T07:19:34.682Z,4.75
2017-10-23T07:20:34.674Z,4.36
2017-10-23T07:21:34.317Z,5.32
2017-10-23T07:22:34.310Z,5.6
2017-10-23T07:23:34.633Z,5.13
2017-10-23T07:24:34.619Z,6.65
2017-10-23T07:25:34.608Z,7.6
2017-10-23T07:26:34.254Z,7.4
2017-10-23T07:27:34.240Z,7.98
2017-10-23T07:28:34.249Z,9.21
2017-10-23T07:29:34.557Z,10.35
2017-10-23T07:30:34.546Z,9.31
2017-10-23T07:31:34.207Z,9.21
2017-10-23T07:32:34.183Z,9.12
2017-10-23T07:33:34.172Z,8.64
2017-10-23T07:34:34.159Z,8.54
2017-10-23T07:35:34.147Z,8.45
2017-10-23T07:36:34.133Z,7.69
2017-10-23T07:37:34.141Z,7.98
2017-10-23T07:38:34.450Z,8.45
2017-10-23T07:39:34.103Z,9.4
2017-10-23T07:40:34.088Z,9.97
2017-10-23T07:41:34.414Z,9.02
2017-10-23T07:42:34.062Z,9.02
2017-10-23T07:43:34.071Z,9.88
2017-10-23T07:44:34.040Z,10.55
2017-10-23T07:45:34.028Z,10.36
2017-10-23T07:46:34.018Z,10.93
2017-10-23T07:47:34.008Z,11.02
2017-10-23T07:48:34.008Z,10.45
2017-10-23T07:49:34.323Z,10.64
2017-10-23T07:50:34.307Z,11.59
2017-10-23T07:51:33.956Z,13.11
2017-10-23T07:52:33.944Z,14.63
2017-10-23T07:53:34.279Z,15.68
2017-10-23T07:54:34.263Z,17.86
2017-10-23T07:55:34.258Z,18.05
2017-10-23T07:56:33.900Z,18.43
2017-10-23T07:57:38.908Z,19.29
2017-10-23T07:58:34.214Z,19.57
2017-10-23T07:59:33.865Z,20.14
2017-10-23T08:00:34.192Z,20.72
2017-10-23T08:01:33.841Z,19.86
2017-10-23T08:02:33.829Z,20.81
2017-10-23T08:03:34.179Z,22.42
2017-10-23T08:04:33.812Z,22.05
2017-10-23T08:05:33.794Z,18.91
2017-10-23T08:06:33.783Z,17.29
2017-10-23T08:07:33.774Z,15.3
2017-10-23T08:08:34.107Z,17.48
2017-10-23T08:09:33.747Z,17.1
2017-10-23T08:10:34.089Z,17.68
2017-10-23T08:11:33.733Z,17.86
2017-10-23T08:12:33.714Z,18.62
2017-10-23T08:13:34.040Z,17.2
2017-10-23T08:14:34.028Z,15.68
2017-10-23T08:15:33.682Z,15.3
2017-10-23T08:16:34.568Z,15.87
2017-10-23T08:17:33.657Z,17.39
2017-10-23T08:18:33.643Z,18.15
2017-10-23T08:19:33.975Z,15.77
2017-10-23T08:20:33.959Z,13.11
2017-10-23T08:21:33.949Z,12.73
2017-10-23T08:22:33.599Z,11.78
2017-10-23T08:23:33.585Z,11.3
2017-10-23T08:24:33.574Z,10.35
2017-10-23T08:25:33.919Z,8.17
2017-10-23T08:26:33.890Z,7.21
2017-10-23T08:27:33.541Z,6.27
2017-10-23T08:28:33.528Z,4.46
2017-10-23T08:29:33.513Z,3.04
2017-10-23T08:30:33.504Z,0.76
2017-10-23T08:31:33.835Z,1.71
2017-10-23T08:32:33.478Z,2.28
2017-10-23T08:33:33.811Z,1.04
2017-10-23T08:34:33.504Z,0
2017-10-23T08:35:33.446Z,0
2017-10-23T08:36:33.439Z,0
2017-10-23T08:37:33.442Z,0
2017-10-23T08:38:33.462Z,0
2017-10-23T08:39:33.738Z,0
2017-10-23T08:40:33.388Z,0
2017-10-23T08:41:33.374Z,0
2017-10-23T08:42:33.366Z,0
2017-10-23T08:43:33.350Z,0
2017-10-23T08:44:33.337Z,0
2017-10-23T08:45:33.326Z,0
2017-10-23T08:46:33.313Z,0
2017-10-23T08:47:33.303Z,0
2017-10-23T08:48:33.291Z,0
2017-10-23T08:49:33.279Z,0
2017-10-23T08:50:33.626Z,0
2017-10-23T08:51:33.264Z,0
2017-10-23T08:52:33.268Z,0
2017-10-23T08:53:33.577Z,0
2017-10-23T08:54:33.234Z,0
2017-10-23T08:55:33.212Z,0
2017-10-23T08:56:33.205Z,0
2017-10-23T08:57:33.189Z,0
2017-10-23T08:58:33.209Z,0
2017-10-23T08:59:33.498Z,0
2017-10-23T09:00:33.152Z,0
2017-10-23T09:01:33.475Z,0
2017-10-23T09:02:33.465Z,0
2017-10-23T09:03:33.114Z,0
2017-10-23T09:04:33.561Z,0
2017-10-23T09:05:33.095Z,0
2017-10-23T09:06:33.079Z,0
2017-10-23T09:07:33.066Z,0
2017-10-23T09:08:33.399Z,0
2017-10-23T09:09:33.043Z,0
2017-10-23T09:10:33.030Z,0
2017-10-23T09:11:33.022Z,0
2017-10-23T09:12:33.010Z,0
2017-10-23T09:13:33.349Z,0
2017-10-23T09:14:32.988Z,0
2017-10-23T09:15:32.973Z,0
2017-10-23T09:16:32.959Z,0
2017-10-23T09:17:33.311Z,0
2017-10-23T09:18:33.280Z,0
2017-10-23T09:19:32.931Z,0
2017-10-23T09:20:32.921Z,0
2017-10-23T09:21:32.902Z,0
2017-10-23T09:22:33.245Z,0
2017-10-23T09:23:33.225Z,0
2017-10-23T09:24:32.873Z,0.28
2017-10-23T09:25:32.856Z,2.66
2017-10-23T09:26:33.185Z,1.61
2017-10-23T09:27:33.175Z,0
2017-10-23T09:28:32.834Z,0
2017-10-23T09:29:32.813Z,0
2017-10-23T09:30:32.810Z,0
2017-10-23T09:31:33.128Z,0
2017-10-23T09:32:33.122Z,0
2017-10-23T09:33:32.762Z,0
2017-10-23T09:34:32.760Z,0
2017-10-23T09:35:32.738Z,0
2017-10-23T09:36:33.095Z,0
2017-10-23T09:37:32.720Z,0.28
2017-10-23T09:38:32.730Z,0.09
2017-10-23T09:39:32.691Z,0
2017-10-23T09:40:32.694Z,0
2017-10-23T09:41:32.669Z,0
2017-10-23T09:42:32.654Z,0
2017-10-23T09:43:32.986Z,0
2017-10-23T09:44:32.648Z,0
2017-10-23T09:45:32.621Z,0
2017-10-23T09:46:32.607Z,0
2017-10-23T09:47:32.597Z,0
2017-10-23T09:48:32.585Z,0
2017-10-23T09:49:32.935Z,0
2017-10-23T09:50:32.927Z,0
2017-10-23T09:51:32.550Z,0
2017-10-23T09:52:32.889Z,0
2017-10-23T09:53:32.863Z,0
2017-10-23T09:54:32.863Z,0
2017-10-23T09:55:32.841Z,0
2017-10-23T09:56:32.830Z,0
2017-10-23T09:57:32.477Z,0
2017-10-23T09:58:32.806Z,0
2017-10-23T09:59:32.802Z,0
2017-10-23T10:00:32.784Z,0
2017-10-23T10:01:32.430Z,0
2017-10-23T10:02:32.429Z,0
2017-10-23T10:03:32.405Z,0
2017-10-23T10:04:32.744Z,0
2017-10-23T10:05:32.385Z,0
2017-10-23T10:06:32.387Z,0
2017-10-23T10:07:32.377Z,0
2017-10-23T10:08:32.353Z,0
2017-10-23T10:09:32.336Z,0
2017-10-23T10:10:32.676Z,0
2017-10-23T10:11:32.314Z,0
2017-10-23T10:12:32.639Z,0
2017-10-23T10:13:32.285Z,0
2017-10-23T10:14:32.617Z,0
2017-10-23T10:15:32.262Z,0
2017-10-23T10:16:32.251Z,0
2017-10-23T10:17:32.240Z,0
2017-10-23T10:18:32.226Z,0
2017-10-23T10:20:32.203Z,0
2017-10-23T10:21:32.192Z,0
2017-10-23T10:22:32.180Z,0
2017-10-23T10:23:32.167Z,0
2017-10-23T10:24:32.495Z,0
2017-10-23T10:25:32.166Z,0
2017-10-23T10:26:32.131Z,0
2017-10-23T10:27:32.119Z,0
2017-10-23T10:28:32.107Z,0
2017-10-23T10:29:32.096Z,0
2017-10-23T10:30:32.083Z,0
2017-10-23T10:31:32.072Z,0
2017-10-23T10:32:32.063Z,0
2017-10-23T10:33:32.050Z,0
2017-10-23T10:34:32.057Z,0
2017-10-23T10:35:32.023Z,0
2017-10-23T10:36:32.066Z,0
2017-10-23T10:37:32.368Z,0
2017-10-23T10:38:32.342Z,0
2017-10-23T10:39:32.317Z,0
2017-10-23T10:40:31.971Z,0
2017-10-23T10:41:31.954Z,0
2017-10-23T10:42:31.943Z,0
2017-10-23T10:43:31.945Z,0
2017-10-23T10:44:32.258Z,0
2017-10-23T10:45:32.249Z,0
2017-10-23T10:46:31.894Z,0
2017-10-23T10:47:32.233Z,0
2017-10-23T10:48:31.871Z,0
2017-10-23T10:49:31.859Z,0
2017-10-23T10:50:32.193Z,0
2017-10-23T10:51:32.927Z,0
2017-10-23T10:52:31.825Z,0
2017-10-23T10:53:31.812Z,0
2017-10-23T10:54:32.143Z,0
2017-10-23T10:55:31.789Z,0
2017-10-23T10:56:32.125Z,0
2017-10-23T10:57:32.113Z,0
2017-10-23T10:58:32.118Z,0
2017-10-23T10:59:31.743Z,0
2017-10-23T11:00:32.072Z,0
2017-10-23T11:01:31.732Z,0
2017-10-23T11:02:31.711Z,0
2017-10-23T11:03:32.035Z,0
2017-10-23T11:04:32.028Z,0
2017-10-23T11:05:31.672Z,0
2017-10-23T11:06:31.662Z,0
2017-10-23T11:07:31.650Z,0
2017-10-23T11:08:31.637Z,0
2017-10-23T11:09:31.627Z,0
2017-10-23T11:10:31.616Z,0
2017-10-23T11:11:31.948Z,0
2017-10-23T11:12:31.592Z,0
2017-10-23T11:13:31.579Z,0
2017-10-23T11:14:31.576Z,0
2017-10-23T11:15:31.904Z,0
2017-10-23T11:16:31.544Z,0
2017-10-23T11:17:31.874Z,0
2017-10-23T11:18:31.544Z,0
2017-10-23T11:19:31.860Z,0
2017-10-23T11:20:31.512Z,0
2017-10-23T11:21:31.828Z,0
2017-10-23T11:22:31.474Z,0
2017-10-23T11:23:31.814Z,0
2017-10-23T11:24:31.798Z,0
2017-10-23T11:25:31.440Z,0
2017-10-23T11:26:31.778Z,0
2017-10-23T11:27:31.418Z,0
2017-10-23T11:28:31.404Z,0
2017-10-23T11:29:31.394Z,0
2017-10-23T11:30:31.382Z,0
2017-10-23T11:31:31.370Z,0
2017-10-23T11:32:31.700Z,0
2017-10-23T11:33:31.350Z,0
2017-10-23T11:34:31.681Z,0
2017-10-23T11:35:31.330Z,0
2017-10-23T11:36:31.662Z,0
2017-10-23T11:37:31.303Z,0
2017-10-23T11:38:31.300Z,0
2017-10-23T11:39:31.281Z,0
2017-10-23T11:40:31.611Z,0
2017-10-23T11:41:31.257Z,0
2017-10-23T11:42:31.247Z,0
2017-10-23T11:43:31.234Z,0
2017-10-23T11:44:31.564Z,0
2017-10-23T11:45:31.209Z,0
2017-10-23T11:46:31.201Z,0
2017-10-23T11:47:31.188Z,0
2017-10-23T11:48:31.181Z,0
2017-10-23T11:49:31.186Z,0
2017-10-23T11:50:31.493Z,0
2017-10-23T11:51:31.144Z,0
2017-10-23T11:52:31.472Z,0
2017-10-23T11:53:31.120Z,0
2017-10-23T11:54:31.454Z,0
2017-10-23T11:55:31.125Z,0
2017-10-23T11:56:31.426Z,0
2017-10-23T11:57:31.076Z,0
2017-10-23T11:58:31.064Z,0
2017-10-23T11:59:31.053Z,0
2017-10-23T12:00:31.040Z,0
2017-10-23T12:01:31.368Z,0
2017-10-23T12:02:31.018Z,0
2017-10-23T12:03:31.347Z,0
2017-10-23T12:04:30.996Z,0
2017-10-23T12:05:30.984Z,0
2017-10-23T12:06:30.983Z,0
2017-10-23T12:07:30.959Z,0
2017-10-23T12:08:31.294Z,0
2017-10-23T12:09:30.939Z,0
2017-10-23T12:10:30.926Z,0
2017-10-23T12:11:30.915Z,0
2017-10-23T12:12:30.907Z,0
2017-10-23T12:13:30.893Z,0
2017-10-23T12:14:30.881Z,0
2017-10-23T12:15:31.219Z,0
2017-10-23T12:16:31.198Z,0
2017-10-23T12:17:30.847Z,0
2017-10-23T12:18:31.177Z,0
2017-10-23T12:19:30.824Z,0
2017-10-23T12:20:30.813Z,0
2017-10-23T12:21:31.141Z,0
2017-10-23T12:22:30.792Z,0
2017-10-23T12:23:30.777Z,0.28
2017-10-23T12:24:31.109Z,1.04
2017-10-23T12:25:30.758Z,2.66
2017-10-23T12:26:30.745Z,2.28
2017-10-23T12:27:30.736Z,3.04
2017-10-23T12:28:31.070Z,3.42
2017-10-23T12:29:30.712Z,2.94
2017-10-23T12:30:30.720Z,2.28
2017-10-23T12:31:31.046Z,2.19
2017-10-23T12:33:30.669Z,4.28
2017-10-23T12:34:30.654Z,4.18
2017-10-23T12:35:30.985Z,3.14
2017-10-23T12:36:30.652Z,2
2017-10-23T12:37:30.964Z,1.33
2017-10-23T12:38:30.611Z,4.08
2017-10-23T12:39:30.956Z,4.94
2017-10-23T12:40:30.590Z,5.61
2017-10-23T12:41:30.926Z,10.17
2017-10-23T12:42:30.585Z,11.88
2017-10-23T12:43:30.555Z,13.5
2017-10-23T12:44:30.894Z,13.69
2017-10-23T12:45:30.534Z,12.93
2017-10-23T12:46:30.522Z,11.41
2017-10-23T12:47:30.509Z,9.89
2017-10-23T12:48:30.498Z,7.32
2017-10-23T12:49:30.489Z,5.04
2017-10-23T12:50:30.477Z,3.89
2017-10-23T12:51:30.469Z,3.52
2017-10-23T12:52:30.461Z,4.28
2017-10-23T12:53:30.783Z,4.94
2017-10-23T12:54:30.776Z,6.94
2017-10-23T12:55:30.423Z,7.03
2017-10-23T12:56:30.413Z,6.09
2017-10-23T12:57:30.398Z,4.94
2017-10-23T12:58:30.728Z,3.52
2017-10-23T12:59:30.715Z,4.18
2017-10-23T13:00:30.375Z,5.22
2017-10-23T13:01:30.358Z,6.94
2017-10-23T13:02:30.354Z,7.51
2017-10-23T13:03:30.334Z,5.99
2017-10-23T13:04:30.321Z,5.13
2017-10-23T13:05:30.316Z,6.09
2017-10-23T13:06:30.301Z,8.37
2017-10-23T13:07:30.290Z,11.41
2017-10-23T13:08:30.283Z,12.18
2017-10-23T13:09:30.269Z,12.46
2017-10-23T13:10:30.256Z,12.55
2017-10-23T13:11:30.252Z,13.98
2017-10-23T13:12:30.238Z,13.79
2017-10-23T13:13:30.568Z,15.41
2017-10-23T13:14:30.551Z,19.02
2017-10-23T13:15:30.201Z,18.74
2017-10-23T13:16:30.193Z,17.12
2017-10-23T13:17:30.521Z,21.12
2017-10-23T13:18:30.530Z,23.21
2017-10-23T13:19:30.162Z,20.36
2017-10-23T13:20:30.150Z,20.54
2017-10-23T13:21:30.479Z,23.21
2017-10-23T13:22:30.467Z,22.54
2017-10-23T13:23:30.118Z,21.69
2017-10-23T13:24:30.111Z,21.5
2017-10-23T13:25:30.436Z,20.45
2017-10-23T13:26:30.086Z,18.93
2017-10-23T13:27:30.074Z,18.26
2017-10-23T13:28:30.419Z,21.69
2017-10-23T13:29:30.052Z,20.64
2017-10-23T13:30:30.045Z,19.78
2017-10-23T13:31:30.374Z,18.45
2017-10-23T13:32:30.029Z,17.22
2017-10-23T13:33:30.371Z,21.12
2017-10-23T13:34:30.015Z,23.88
2017-10-23T13:35:29.992Z,25.11
2017-10-23T13:36:29.979Z,27.78
2017-10-23T13:37:29.989Z,25.68
2017-10-23T13:38:29.962Z,23.59
2017-10-23T13:39:30.302Z,26.64
2017-10-23T13:40:29.938Z,28.36
2017-10-23T13:41:30.267Z,27.3
2017-10-23T13:42:29.933Z,25.59
2017-10-23T13:43:30.254Z,23.97
2017-10-23T13:44:29.898Z,23.88
2017-10-23T13:45:30.228Z,25.02
2017-10-23T13:46:29.876Z,23.78
2017-10-23T13:47:30.210Z,22.83
2017-10-23T13:48:29.858Z,23.3
2017-10-23T13:49:30.183Z,22.74
2017-10-23T13:50:29.833Z,23.3
2017-10-23T13:51:30.166Z,24.07
2017-10-23T13:52:29.814Z,24.26
2017-10-23T13:53:30.143Z,23.3
2017-10-23T13:54:29.792Z,22.83
2017-10-23T13:55:29.781Z,22.16
2017-10-23T13:56:30.110Z,22.26
2017-10-23T13:57:29.762Z,22.35
2017-10-23T13:58:30.089Z,22.64
2017-10-23T13:59:30.082Z,22.45
2017-10-23T14:00:30.070Z,24.44
2017-10-23T14:01:29.719Z,24.07
2017-10-23T14:02:30.085Z,24.44
2017-10-23T14:03:29.704Z,24.07
2017-10-23T14:04:29.692Z,23.3
2017-10-23T14:05:29.678Z,21.12
2017-10-23T14:06:30.008Z,20.17
2017-10-23T14:07:29.655Z,19.4
2017-10-23T14:08:29.988Z,18.16
2017-10-23T14:09:29.637Z,17.97
2017-10-23T14:10:29.623Z,19.59
2017-10-23T14:11:29.969Z,19.78
2017-10-23T14:12:29.609Z,18.74
2017-10-23T14:13:29.601Z,19.4
2017-10-23T14:14:29.604Z,18.54
2017-10-23T14:15:29.574Z,18.06
2017-10-23T14:16:29.905Z,18.82
2017-10-23T14:17:29.553Z,18.92
2017-10-23T14:18:29.541Z,18.16
2017-10-23T14:19:29.876Z,17.49
2017-10-23T14:20:29.857Z,16.45
2017-10-23T14:21:29.510Z,14.92
2017-10-23T14:22:29.498Z,15.21